East Fultonham, Ohio
Current Conditions -  °F | °C
As of 3:53 PM on Saturday 25 Oct 2014 (Local Time) from KZZV Reporting Station
Scattered Clouds Scattered Clouds  
Wind Chill: 68°   Ceiling: Unl
Heat Index: 68°   Visibility: 10mi
Dew Point: 53°   Wind: 10mph
Humidity: 59%   Direction: 240°WSW
Pressure: 29.84"   Gusts: 21mph
Location:  39.85°N, 82.12°W
Report Text: KZZV 251953Z AUTO 24009G18KT 10SM SCT034 20/12 A2984 RMK AO2 SLP103 T02000117
Loading
Personal Weather Stations






























Interactive Weather Map
Tropical Storm Tracking
New forecast layout! Learn more

10-Day Weather Forecast

Advertisements
Track Severe Weather on mobile